Time;durP1;ratioP1;P1;durP2;ratioP2;P2;SDS_P1;SDS_P2;PMS_P1;PMS_P2;Temp;Humidity;BMP_temperature;BMP_pressure;BME280_temperature;BME280_humidity;BME280_pressure;Samples;Min_cycle;Max_cycle;Signal;HPM_P1;HPM_P2
2022/09/19 00:01:54;;;;;;;11.40;7.80;;;;;;;7.69;100.00;96939.02;106368;1280;22763;-82
2022/09/19 00:04:25;;;;;;;9.60;7.30;;;;;;;7.67;100.00;96931.63;106078;1280;22718;-82
2022/09/19 00:06:55;;;;;;;10.20;7.80;;;;;;;7.66;100.00;96930.75;106372;1280;22638;-82
2022/09/19 00:09:26;;;;;;;7.50;6.70;;;;;;;7.65;100.00;96928.79;105716;1283;22590;-81
2022/09/19 00:11:55;;;;;;;8.90;7.30;;;;;;;7.62;100.00;96927.84;106640;1280;22576;-81
2022/09/19 00:14:30;;;;;;;11.70;7.60;;;;;;;7.58;100.00;96931.48;106705;1279;22540;-81
2022/09/19 00:17:02;;;;;;;8.70;6.90;;;;;;;7.58;100.00;96932.13;106728;1280;24397;-81
2022/09/19 00:19:31;;;;;;;11.00;7.40;;;;;;;7.55;100.00;96930.09;106401;1280;22559;-80
2022/09/19 00:22:01;;;;;;;7.30;6.30;;;;;;;7.53;100.00;96930.80;106703;1280;22678;-80
2022/09/19 00:27:22;;;;;;;9.00;6.20;;;;;;;7.50;100.00;96933.37;106268;1280;23979;-81
2022/09/19 00:29:53;;;;;;;7.40;5.70;;;;;;;7.45;100.00;96927.16;106358;1280;25355;-81
2022/09/19 00:32:23;;;;;;;7.00;5.50;;;;;;;7.43;100.00;96930.73;106286;1280;22697;-81
2022/09/19 00:34:54;;;;;;;5.70;4.90;;;;;;;7.42;100.00;96930.98;106189;1280;22541;-81
2022/09/19 00:37:24;;;;;;;6.10;5.00;;;;;;;7.42;100.00;96937.81;106029;1281;22574;-81
2022/09/19 00:39:54;;;;;;;6.70;5.60;;;;;;;7.40;100.00;96941.41;106361;1280;25380;-82
2022/09/19 00:42:25;;;;;;;5.70;5.10;;;;;;;7.39;100.00;96938.75;106318;1279;25352;-82
2022/09/19 00:45:11;;;;;;;5.90;5.10;;;;;;;7.36;100.00;96938.77;106246;1280;22762;-81
2022/09/19 00:47:46;;;;;;;7.10;5.10;;;;;;;7.34;100.00;96937.36;106085;1280;22716;-82
2022/09/19 00:50:21;;;;;;;6.40;5.40;;;;;;;7.32;100.00;96935.04;106051;1280;22602;-82
2022/09/19 00:52:58;;;;;;;7.10;5.70;;;;;;;7.31;100.00;96934.16;106093;1280;23241;-82
2022/09/19 00:55:27;;;;;;;6.10;4.80;;;;;;;7.30;100.00;96931.29;106088;1280;22584;-81
2022/09/19 00:58:21;;;;;;;7.40;4.80;;;;;;;7.31;100.00;96935.77;106169;1280;22553;-82
2022/09/19 01:00:49;;;;;;;6.40;5.70;;;;;;;7.30;100.00;96935.42;106237;1280;22699;-81
2022/09/19 01:03:18;;;;;;;8.00;5.50;;;;;;;7.26;100.00;96928.59;106346;1280;25963;-82
2022/09/19 01:06:06;;;;;;;5.40;4.30;;;;;;;7.25;100.00;96937.33;106408;1280;22584;-82
2022/09/19 01:09:01;;;;;;;6.80;4.60;;;;;;;7.25;100.00;96938.89;105089;1288;22715;-82
2022/09/19 01:11:29;;;;;;;6.00;5.20;;;;;;;7.20;100.00;96944.36;105094;1288;24446;-85
2022/09/19 01:14:11;;;;;;;5.70;4.50;;;;;;;7.13;100.00;96942.52;105032;1289;22585;-84
2022/09/19 01:16:50;;;;;;;7.10;4.30;;;;;;;7.08;100.00;96943.15;104962;1288;24426;-84
2022/09/19 01:19:40;;;;;;;5.00;3.90;;;;;;;7.07;100.00;96941.08;104964;1288;25431;-84
2022/09/19 01:22:43;;;;;;;6.40;3.90;;;;;;;7.04;100.00;96942.05;104973;1288;25456;-83
2022/09/19 01:29:32;;;;;;;5.50;4.60;;;;;;;6.95;100.00;96942.34;104946;1288;23354;-83
2022/09/19 01:32:05;;;;;;;4.70;4.00;;;;;;;6.92;100.00;96941.77;104942;1288;24272;-84
2022/09/19 01:34:40;;;;;;;5.00;3.60;;;;;;;6.90;100.00;96948.98;104929;1288;22550;-83
2022/09/19 01:37:19;;;;;;;6.60;4.10;;;;;;;6.88;100.00;96945.81;104974;1288;22553;-84
2022/09/19 01:39:50;;;;;;;4.90;3.80;;;;;;;6.88;100.00;96944.58;104970;1288;25476;-83
2022/09/19 01:42:20;;;;;;;5.70;3.90;;;;;;;6.86;100.00;96945.42;104984;1289;25415;-81
2022/09/19 01:44:50;;;;;;;4.90;3.60;;;;;;;6.85;100.00;96945.59;104976;1288;25339;-83
2022/09/19 01:47:58;;;;;;;4.90;3.90;;;;;;;6.83;100.00;96945.62;105564;1282;22550;-83
2022/09/19 01:50:50;;;;;;;7.60;4.60;;;;;;;6.78;100.00;96947.60;105872;1280;22697;-83
2022/09/19 01:53:31;;;;;;;5.80;4.00;;;;;;;6.78;100.00;96951.81;106006;1280;24113;-83
2022/09/19 01:56:36;;;;;;;6.00;4.80;;;;;;;6.79;100.00;96955.39;105861;1280;25268;-83
2022/09/19 01:59:26;;;;;;;6.20;4.20;;;;;;;6.81;100.00;96953.90;105951;1280;25713;-83
2022/09/19 02:02:17;;;;;;;4.60;4.10;;;;;;;6.84;100.00;96953.96;105951;1280;22578;-82
2022/09/19 02:04:50;;;;;;;7.10;5.20;;;;;;;6.79;100.00;96958.71;105944;1280;22557;-83
2022/09/19 02:07:42;;;;;;;5.50;4.40;;;;;;;6.76;100.00;96959.23;105911;1280;25410;-83
2022/09/19 02:10:39;;;;;;;7.20;4.10;;;;;;;6.75;100.00;96961.41;105681;1280;25520;-83
2022/09/19 02:13:11;;;;;;;6.20;4.60;;;;;;;6.78;100.00;96962.33;105877;1280;23308;-83
2022/09/19 02:15:49;;;;;;;5.10;4.30;;;;;;;6.76;100.00;96966.27;105957;1280;26517;-84
2022/09/19 02:18:29;;;;;;;5.10;4.60;;;;;;;6.73;100.00;96971.52;106044;1280;25552;-86
2022/09/19 02:21:05;;;;;;;7.80;4.80;;;;;;;6.73;100.00;96971.40;105949;1280;22560;-84
2022/09/19 02:23:39;;;;;;;5.60;5.00;;;;;;;6.77;100.00;96966.31;105802;1280;24093;-84
2022/09/19 02:26:09;;;;;;;7.30;5.60;;;;;;;6.78;100.00;96966.08;105592;1282;22711;-83
2022/09/19 02:28:44;;;;;;;9.30;6.70;;;;;;;6.78;100.00;96969.44;105854;1280;25345;-84
2022/09/19 02:31:17;;;;;;;7.30;6.60;;;;;;;6.76;100.00;96968.14;105846;1280;25695;-83
2022/09/19 02:33:50;;;;;;;9.60;7.60;;;;;;;6.78;100.00;96967.46;105867;1280;22702;-83
2022/09/19 02:36:46;;;;;;;9.70;8.80;;;;;;;6.81;100.00;96968.05;107486;1280;22690;-82
2022/09/19 02:39:20;;;;;;;;;;;;;;;6.84;100.00;96968.79;105864;1280;24430;-84
2022/09/19 02:42:07;;;;;;;11.00;10.00;;;;;;;6.85;100.00;96969.27;105959;1280;25360;-84
2022/09/19 02:45:07;;;;;;;12.50;10.60;;;;;;;6.84;100.00;96968.96;105880;1280;22780;-85
2022/09/19 02:48:02;;;;;;;11.60;10.40;;;;;;;6.85;100.00;96965.14;106040;1280;22661;-84
2022/09/19 02:50:47;;;;;;;11.40;10.30;;;;;;;6.89;100.00;96968.76;106036;1280;22663;-84
2022/09/19 02:53:26;;;;;;;11.20;10.10;;;;;;;6.88;100.00;96971.73;106061;1280;22705;-84
2022/09/19 02:56:02;;;;;;;9.50;8.60;;;;;;;6.89;100.00;96977.00;105971;1280;23412;-84
2022/09/19 02:58:38;;;;;;;9.90;9.00;;;;;;;6.90;100.00;96977.69;106018;1280;25314;-83
2022/09/19 03:01:12;;;;;;;9.40;8.10;;;;;;;6.88;100.00;96976.80;106139;1280;25533;-84
2022/09/19 03:06:50;;;;;;;8.80;8.00;;;;;;;6.86;100.00;96984.02;106108;1280;24411;-84
2022/09/19 03:09:24;;;;;;;9.40;8.40;;;;;;;6.85;100.00;96988.59;106096;1280;25358;-84
2022/09/19 03:12:03;;;;;;;10.90;8.10;;;;;;;6.82;100.00;96984.67;105655;1280;22562;-85
2022/09/19 03:14:32;;;;;;;9.30;7.40;;;;;;;6.84;100.00;96986.47;106048;1280;22747;-85
2022/09/19 03:17:01;;;;;;;8.70;7.80;;;;;;;6.84;100.00;96990.38;105832;1280;24413;-85
2022/09/19 03:19:32;;;;;;;7.90;7.10;;;;;;;6.83;100.00;96991.47;105954;1280;22705;-84
2022/09/19 03:22:00;;;;;;;7.50;6.70;;;;;;;6.86;100.00;96996.73;106011;1280;22667;-84
2022/09/19 03:24:30;;;;;;;7.30;6.60;;;;;;;6.85;100.00;96998.41;106055;1280;24116;-84
2022/09/19 03:26:58;;;;;;;9.20;8.30;;;;;;;6.83;100.00;96996.92;105848;1280;23174;-86
2022/09/19 03:29:26;;;;;;;9.80;8.10;;;;;;;6.85;100.00;96997.11;105963;1280;22683;-85
2022/09/19 03:31:58;;;;;;;10.90;7.20;;;;;;;6.82;100.00;96995.17;105928;1280;24258;-84
2022/09/19 03:34:26;;;;;;;8.80;7.30;;;;;;;6.82;100.00;96995.56;105841;1280;23309;-85
2022/09/19 03:36:54;;;;;;;9.10;8.20;;;;;;;6.82;100.00;96995.34;106011;1280;25468;-84
2022/09/19 03:39:25;;;;;;;11.70;8.00;;;;;;;6.83;100.00;97000.03;105980;1280;23955;-84
2022/09/19 03:41:54;;;;;;;11.10;9.40;;;;;;;6.79;100.00;97001.70;105807;1280;22700;-84
2022/09/19 03:44:22;;;;;;;9.80;8.40;;;;;;;6.75;100.00;97007.55;105938;1280;25254;-84
2022/09/19 03:46:49;;;;;;;12.90;9.10;;;;;;;6.73;100.00;97005.27;105869;1281;25334;-83
2022/09/19 03:49:19;;;;;;;11.10;8.70;;;;;;;6.70;100.00;97005.86;105823;1280;22622;-84
2022/09/19 03:51:49;;;;;;;12.50;10.30;;;;;;;6.68;100.00;97009.68;105885;1280;22560;-84
2022/09/19 03:54:17;;;;;;;14.20;10.50;;;;;;;6.69;100.00;97005.48;105513;1280;22558;-83
2022/09/19 03:56:46;;;;;;;11.30;10.30;;;;;;;6.70;100.00;97009.91;105891;1280;22542;-84
2022/09/19 03:59:14;;;;;;;14.50;9.10;;;;;;;6.74;100.00;97010.43;105768;1280;22550;-84
2022/09/19 04:01:44;;;;;;;10.10;9.10;;;;;;;6.74;100.00;97012.96;105896;1280;22626;-84
2022/09/19 04:04:13;;;;;;;9.70;8.10;;;;;;;6.71;100.00;97011.97;105771;1280;22531;-84
2022/09/19 04:06:45;;;;;;;8.80;7.90;;;;;;;6.66;100.00;97007.79;105912;1280;25356;-84
2022/09/19 04:09:13;;;;;;;10.50;8.20;;;;;;;6.62;100.00;97009.71;105767;1282;25403;-84
2022/09/19 04:11:43;;;;;;;11.10;7.80;;;;;;;6.61;100.00;97010.55;105595;1281;24719;-84
2022/09/19 04:14:12;;;;;;;10.90;7.70;;;;;;;6.59;100.00;97012.13;105884;1280;25353;-82
2022/09/19 04:16:40;;;;;;;8.80;7.70;;;;;;;6.59;100.00;97010.43;105800;1280;22566;-84
2022/09/19 04:19:09;;;;;;;13.10;8.80;;;;;;;6.59;100.00;97008.83;105856;1279;22580;-83
2022/09/19 04:22:03;;;;;;;11.90;10.80;;;;;;;6.58;100.00;97012.09;106003;1280;22543;-83
2022/09/19 04:24:43;;;;;;;11.00;9.50;;;;;;;6.55;100.00;97019.06;106126;1280;22538;-84
2022/09/19 04:27:30;;;;;;;10.80;9.40;;;;;;;6.51;100.00;97020.94;106071;1282;22643;-83
2022/09/19 04:30:00;;;;;;;8.80;7.90;;;;;;;6.50;100.00;97024.54;106067;1280;26498;-83
2022/09/19 04:32:30;;;;;;;9.70;7.90;;;;;;;6.50;100.00;97024.28;105850;1280;24215;-83
2022/09/19 04:34:59;;;;;;;10.70;8.50;;;;;;;6.52;100.00;97027.36;105846;1280;24307;-84
2022/09/19 04:37:29;;;;;;;9.90;8.80;;;;;;;6.52;100.00;97024.45;105804;1280;22570;-83
2022/09/19 04:40:07;;;;;;;9.30;8.40;;;;;;;6.52;100.00;97029.06;105892;1280;22547;-83
2022/09/19 04:42:35;;;;;;;11.70;8.80;;;;;;;6.50;100.00;97031.66;106772;1280;22568;-83
2022/09/19 04:45:07;;;;;;;11.20;9.10;;;;;;;6.50;100.00;97035.14;106699;1280;22742;-83
2022/09/19 04:47:43;;;;;;;11.30;10.10;;;;;;;6.50;100.00;97035.09;105959;1280;23388;-83
2022/09/19 04:50:11;;;;;;;12.80;11.50;;;;;;;6.51;100.00;97040.64;105864;1280;23937;-84
2022/09/19 04:52:41;;;;;;;13.40;12.10;;;;;;;6.55;100.00;97043.19;105985;1280;23955;-84
2022/09/19 04:55:09;;;;;;;18.10;16.50;;;;;;;6.57;100.00;97044.56;105566;1280;22779;-84
2022/09/19 04:57:37;;;;;;;18.50;16.80;;;;;;;6.58;100.00;97047.64;105780;1280;25301;-84
2022/09/19 05:00:12;;;;;;;20.30;18.70;;;;;;;6.59;100.00;97048.69;106027;1280;25457;-83
2022/09/19 05:02:44;;;;;;;22.60;20.60;;;;;;;6.62;100.00;97048.23;105770;1280;25440;-83
2022/09/19 05:05:17;;;;;;;21.60;19.70;;;;;;;6.65;100.00;97053.46;105944;1280;22537;-83
2022/09/19 05:07:47;;;;;;;20.60;18.70;;;;;;;6.70;100.00;97055.05;106015;1280;22838;-83
2022/09/19 05:10:16;;;;;;;16.20;14.80;;;;;;;6.71;100.00;97053.86;106090;1280;22557;-84
2022/09/19 05:12:44;;;;;;;14.60;13.40;;;;;;;6.69;100.00;97063.19;105842;1280;22567;-83
2022/09/19 05:15:12;;;;;;;15.10;13.60;;;;;;;6.68;100.00;97065.16;105661;1280;22557;-83
2022/09/19 05:17:41;;;;;;;14.40;13.00;;;;;;;6.67;100.00;97070.68;105811;1280;24418;-84
2022/09/19 05:20:10;;;;;;;13.70;12.40;;;;;;;6.67;100.00;97070.73;106062;1280;24369;-84
2022/09/19 05:22:38;;;;;;;12.60;11.40;;;;;;;6.71;100.00;97080.48;105844;1280;22862;-84
2022/09/19 05:25:09;;;;;;;15.00;13.50;;;;;;;6.74;100.00;97081.11;106036;1280;23382;-85
2022/09/19 05:27:41;;;;;;;15.40;14.00;;;;;;;6.74;100.00;97082.60;106038;1280;25629;-84
2022/09/19 05:30:11;;;;;;;13.80;12.60;;;;;;;6.74;100.00;97080.74;105829;1280;25484;-84
2022/09/19 05:32:44;;;;;;;12.50;11.40;;;;;;;6.73;100.00;97076.09;105690;1280;24246;-83
2022/09/19 05:35:23;;;;;;;12.60;11.50;;;;;;;6.75;100.00;97078.52;106078;1280;23943;-84
2022/09/19 05:38:11;;;;;;;14.40;11.90;;;;;;;6.79;100.00;97084.89;105818;1280;22662;-82
2022/09/19 05:41:02;;;;;;;12.80;11.00;;;;;;;6.81;100.00;97095.11;105670;1280;25296;-84
2022/09/19 05:44:03;;;;;;;15.40;13.90;;;;;;;6.82;100.00;97097.08;105777;1280;25362;-83
2022/09/19 05:46:31;;;;;;;14.70;13.40;;;;;;;6.83;100.00;97101.47;106062;1280;24117;-83
2022/09/19 05:49:00;;;;;;;13.90;11.60;;;;;;;6.84;100.00;97104.60;105818;1280;22560;-84
2022/09/19 05:51:28;;;;;;;14.20;11.70;;;;;;;6.87;100.00;97106.48;105796;1280;24246;-85
2022/09/19 05:53:59;;;;;;;13.90;12.60;;;;;;;6.87;100.00;97111.63;106045;1280;25505;-84
2022/09/19 05:56:40;;;;;;;16.50;14.40;;;;;;;6.89;100.00;97110.91;105799;1282;26521;-84
2022/09/19 05:59:11;;;;;;;12.40;11.10;;;;;;;6.90;100.00;97114.20;105776;1282;25314;-85
2022/09/19 06:01:41;;;;;;;11.10;10.00;;;;;;;6.91;100.00;97114.34;106294;1280;22554;-86
2022/09/19 06:04:13;;;;;;;12.20;10.60;;;;;;;6.93;100.00;97114.32;106043;1280;22678;-84
2022/09/19 06:06:42;;;;;;;12.40;9.80;;;;;;;6.97;100.00;97117.46;105854;1280;25307;-83
2022/09/19 06:09:09;;;;;;;10.50;9.40;;;;;;;7.05;100.00;97114.59;105838;1280;22789;-84
2022/09/19 06:11:41;;;;;;;11.10;9.10;;;;;;;7.09;100.00;97116.82;105921;1280;25356;-85
2022/09/19 06:14:16;;;;;;;12.80;11.60;;;;;;;7.15;100.00;97122.39;105988;1280;24315;-85
2022/09/19 06:16:46;;;;;;;13.50;11.50;;;;;;;7.16;100.00;97129.55;106094;1280;23394;-85
2022/09/19 06:19:43;;;;;;;17.00;11.80;;;;;;;7.15;100.00;97133.61;105879;1280;22587;-84
2022/09/19 06:22:22;;;;;;;22.20;11.20;;;;;;;7.13;100.00;97135.19;106075;1280;22580;-84
2022/09/19 06:24:53;;;;;;;13.50;12.10;;;;;;;7.12;100.00;97133.77;106085;1280;25533;-84
2022/09/19 06:27:22;;;;;;;14.40;13.10;;;;;;;7.17;100.00;97137.47;105858;1280;22839;-86
2022/09/19 06:29:50;;;;;;;15.40;14.00;;;;;;;7.22;100.00;97137.55;106077;1280;22623;-84
2022/09/19 06:32:39;;;;;;;13.50;12.30;;;;;;;7.30;100.00;97137.08;105849;1280;22790;-83
2022/09/19 06:35:18;;;;;;;12.40;11.30;;;;;;;7.36;100.00;97139.33;105780;1280;25435;-83
2022/09/19 06:37:47;;;;;;;12.00;10.90;;;;;;;7.42;100.00;97136.83;106038;1280;22576;-83
2022/09/19 06:40:22;;;;;;;16.70;15.30;;;;;;;7.45;100.00;97138.59;105912;1280;23323;-83
2022/09/19 06:43:01;;;;;;;18.70;17.20;;;;;;;7.47;100.00;97138.21;105921;1280;22688;-82
2022/09/19 06:45:47;;;;;;;19.50;17.70;;;;;;;7.48;100.00;97144.15;105813;1282;23817;-82
2022/09/19 06:48:35;;;;;;;17.00;15.40;;;;;;;7.54;100.00;97145.60;107432;1280;22667;-83
2022/09/19 06:51:30;;;;;;;14.10;12.80;;;;;;;7.62;100.00;97142.42;105817;1281;22537;-85
2022/09/19 06:53:57;;;;;;;13.20;12.00;;;;;;;7.72;100.00;97140.27;106037;1280;22849;-85
2022/09/19 06:56:26;;;;;;;15.80;14.20;;;;;;;7.82;100.00;97146.88;105877;1280;22554;-84
2022/09/19 06:58:55;;;;;;;14.10;12.70;;;;;;;7.90;100.00;97152.14;106091;1280;25278;-84
2022/09/19 07:01:23;;;;;;;13.60;12.30;;;;;;;7.90;100.00;97159.80;106001;1280;22562;-84
2022/09/19 07:03:52;;;;;;;13.90;12.60;;;;;;;7.85;100.00;97160.83;105822;1280;22883;-84
2022/09/19 07:06:31;;;;;;;14.30;12.90;;;;;;;7.81;100.00;97165.45;105940;1280;25300;-84
2022/09/19 07:09:04;;;;;;;19.10;17.30;;;;;;;7.74;100.00;97163.44;105849;1280;25344;-84
2022/09/19 07:11:35;;;;;;;15.60;14.00;;;;;;;7.68;100.00;97171.65;105855;1282;25362;-84
2022/09/19 07:14:05;;;;;;;13.00;11.80;;;;;;;7.65;100.00;97176.49;105540;1281;22579;-83
2022/09/19 07:16:33;;;;;;;9.80;8.80;;;;;;;7.55;100.00;97181.23;105830;1280;23485;-84
2022/09/19 07:19:02;;;;;;;10.30;9.30;;;;;;;7.49;100.00;97184.51;105940;1280;25494;-85
2022/09/19 07:21:53;;;;;;;8.70;7.90;;;;;;;7.42;100.00;97183.08;105432;1282;25258;-84
2022/09/19 07:24:49;;;;;;;8.60;7.70;;;;;;;7.35;100.00;97184.11;105806;1280;23191;-84
2022/09/19 07:27:27;;;;;;;7.20;6.50;;;;;;;7.31;100.00;97184.82;105975;1280;25629;-86
2022/09/19 07:29:55;;;;;;;10.60;7.00;;;;;;;7.33;100.00;97185.16;106021;1280;22745;-85
2022/09/19 07:32:24;;;;;;;9.00;6.90;;;;;;;7.34;100.00;97189.86;105770;1280;23654;-84
2022/09/19 07:34:52;;;;;;;13.20;10.00;;;;;;;7.41;100.00;97190.02;105995;1280;22708;-85
2022/09/19 07:37:20;;;;;;;12.70;11.40;;;;;;;7.49;100.00;97191.95;105734;1280;22662;-85
2022/09/19 07:40:10;;;;;;;14.70;13.40;;;;;;;7.61;100.00;97192.86;106042;1280;22717;-85
2022/09/19 07:42:47;;;;;;;15.00;13.50;;;;;;;7.71;100.00;97189.94;106091;1280;25420;-84
2022/09/19 07:45:36;;;;;;;12.20;11.00;;;;;;;7.85;100.00;97195.48;106309;1280;23418;-84
2022/09/19 07:48:31;;;;;;;14.70;13.30;;;;;;;7.98;100.00;97192.42;105918;1280;22587;-85
2022/09/19 07:51:26;;;;;;;10.90;9.80;;;;;;;8.08;100.00;97193.08;105553;1283;24409;-82
2022/09/19 07:53:56;;;;;;;13.50;12.10;;;;;;;8.13;100.00;97193.08;105950;1282;24015;-84
2022/09/19 07:56:25;;;;;;;16.10;14.50;;;;;;;8.22;100.00;97193.83;106404;1280;24231;-83
2022/09/19 07:58:54;;;;;;;14.40;13.00;;;;;;;8.35;100.00;97194.03;106258;1280;22701;-86
2022/09/19 08:01:25;;;;;;;14.10;12.60;;;;;;;8.43;100.00;97184.49;106268;1280;25276;-87
2022/09/19 08:04:10;;;;;;;12.10;10.90;;;;;;;8.58;100.00;97193.77;105754;1282;22758;-88
2022/09/19 08:06:46;;;;;;;10.80;9.70;;;;;;;8.61;99.07;97197.26;106001;1281;23451;-86
2022/09/19 08:09:15;;;;;;;11.70;10.40;;;;;;;8.57;98.74;97203.83;106076;1280;24345;-88
2022/09/19 08:11:52;;;;;;;12.20;11.00;;;;;;;8.55;99.11;97207.46;106234;1280;22701;-86
2022/09/19 08:14:20;;;;;;;11.70;9.80;;;;;;;8.57;98.12;97205.14;106319;1280;23939;-86
2022/09/19 08:16:50;;;;;;;10.60;9.00;;;;;;;8.69;98.23;97205.13;106059;1280;24111;-87
2022/09/19 08:19:18;;;;;;;12.90;10.70;;;;;;;8.81;98.03;97202.55;106007;1280;22658;-88
2022/09/19 08:21:48;;;;;;;14.60;10.50;;;;;;;8.99;99.02;97199.30;105953;1280;22578;-88
2022/09/19 08:24:19;;;;;;;6.80;6.10;;;;;;;9.12;97.38;97206.61;106097;1280;25333;-88
2022/09/19 08:26:48;;;;;;;7.90;5.80;;;;;;;9.19;96.61;97206.02;105959;1280;23030;-90
2022/09/19 08:29:17;;;;;;;7.70;5.90;;;;;;;9.22;95.20;97205.15;105931;1280;22686;-87
2022/09/19 08:31:54;;;;;;;8.50;5.80;;;;;;;9.26;95.69;97201.63;106100;1280;25552;-87
2022/09/19 08:34:22;;;;;;;7.20;5.60;;;;;;;9.26;94.65;97205.23;106174;1280;23548;-87
2022/09/19 08:36:53;;;;;;;8.70;5.40;;;;;;;9.22;93.95;97206.92;106160;1279;25430;-87
2022/09/19 08:39:22;;;;;;;6.70;5.60;;;;;;;9.18;94.61;97202.34;106211;1280;25356;-87
2022/09/19 08:42:07;;;;;;;8.60;6.20;;;;;;;9.16;94.68;97203.66;106188;1280;25440;-86
2022/09/19 08:45:02;;;;;;;10.50;6.90;;;;;;;9.16;94.71;97211.46;106391;1280;23176;-88
2022/09/19 08:47:33;;;;;;;7.60;6.70;;;;;;;9.11;94.26;97209.91;106133;1280;22705;-86
2022/09/19 08:50:10;;;;;;;8.70;6.90;;;;;;;9.04;93.45;97210.77;107227;1281;22604;-83
2022/09/19 08:52:45;;;;;;;8.90;6.50;;;;;;;8.95;94.03;97211.95;106373;1280;22559;-86
2022/09/19 08:55:20;;;;;;;7.10;6.40;;;;;;;8.90;93.98;97217.06;106018;1281;22561;-87
2022/09/19 08:57:58;;;;;;;11.80;8.40;;;;;;;8.77;92.86;97222.45;106288;1280;23945;-87
2022/09/19 09:00:37;;;;;;;9.20;7.70;;;;;;;8.57;92.90;97224.41;106196;1280;22801;-86
2022/09/19 09:03:12;;;;;;;11.80;7.40;;;;;;;8.44;93.23;97219.74;106068;1280;25239;-88
2022/09/19 09:06:24;;;;;;;7.60;5.60;;;;;;;8.37;93.71;97221.70;106007;1281;22559;-87
2022/09/19 09:09:13;;;;;;;8.90;7.60;;;;;;;8.37;93.83;97225.08;105965;1281;22880;-87
2022/09/19 09:11:59;;;;;;;10.50;7.90;;;;;;;8.44;94.03;97222.27;106722;1280;23919;-86
2022/09/19 09:14:58;;;;;;;10.00;7.20;;;;;;;8.62;94.50;97225.92;106225;1280;24198;-87
2022/09/19 09:18:16;;;;;;;9.80;7.20;;;;;;;8.88;94.72;97217.59;105915;1282;24194;-87
2022/09/19 09:21:21;;;;;;;10.40;9.10;;;;;;;9.12;94.53;97218.92;106007;1280;25228;-86
2022/09/19 09:23:58;;;;;;;12.90;6.30;;;;;;;9.42;94.34;97214.64;105814;1283;24540;-88
2022/09/19 09:27:17;;;;;;;7.40;4.80;;;;;;;9.71;92.98;97218.09;106557;1280;22651;-89
2022/09/19 09:29:51;;;;;;;5.50;3.90;;;;;;;9.89;92.51;97219.77;106339;1280;25359;-83
2022/09/19 09:32:32;;;;;;;4.90;3.70;;;;;;;9.87;89.71;97221.86;106384;1279;22719;-82
2022/09/19 09:35:06;;;;;;;5.60;3.90;;;;;;;9.75;88.53;97226.33;105819;1283;24347;-83
2022/09/19 09:37:44;;;;;;;4.40;3.20;;;;;;;9.63;88.41;97234.21;106146;1281;22576;-84
2022/09/19 09:43:20;;;;;;;3.70;3.00;;;;;;;9.62;86.64;97231.77;106447;1280;23988;-83
2022/09/19 09:45:51;;;;;;;5.60;3.80;;;;;;;9.63;86.33;97236.32;105899;1280;22541;-83
2022/09/19 09:48:31;;;;;;;2.80;2.60;;;;;;;9.64;86.53;97243.02;106194;1280;22601;-85
2022/09/19 09:51:13;;;;;;;3.10;2.70;;;;;;;9.54;85.58;97250.10;106224;1280;22578;-82
2022/09/19 09:53:44;;;;;;;5.10;3.80;;;;;;;9.29;85.01;97258.23;105890;1283;22728;-83
2022/09/19 09:56:21;;;;;;;4.50;3.70;;;;;;;9.01;85.47;97263.02;105466;1280;1469735;-83
2022/09/19 09:58:57;;;;;;;5.10;3.40;;;;;;;8.86;86.60;97262.52;106603;1280;22551;-83
2022/09/19 10:04:40;;;;;;;6.90;4.50;;;;;;;8.62;87.81;97259.22;105916;1280;24380;-83
2022/09/19 10:07:44;;;;;;;4.70;3.80;;;;;;;8.55;88.43;97259.89;106661;1280;25379;-83
2022/09/19 10:10:17;;;;;;;5.60;4.10;;;;;;;8.64;89.29;97253.84;106124;1280;22765;-83
2022/09/19 10:12:58;;;;;;;5.90;4.00;;;;;;;8.83;89.61;97255.21;106701;1280;25356;-82
2022/09/19 10:15:31;;;;;;;7.20;4.30;;;;;;;8.98;89.45;97253.69;106161;1281;25286;-83
2022/09/19 10:18:13;;;;;;;9.50;6.00;;;;;;;9.13;89.34;97257.86;106468;1280;25366;-83
2022/09/19 10:21:03;;;;;;;8.10;4.50;;;;;;;9.33;89.05;97259.73;106398;1280;22576;-84
2022/09/19 10:23:34;;;;;;;6.20;3.40;;;;;;;9.54;88.95;97259.13;105906;1280;24371;-84
2022/09/19 10:26:15;;;;;;;4.30;3.40;;;;;;;9.73;88.14;97261.41;106183;1279;25321;-84
2022/09/19 10:28:59;;;;;;;116.30;39.40;;;;;;;9.94;87.90;97267.02;106354;1280;23275;-83
2022/09/19 10:31:41;;;;;;;10.50;5.80;;;;;;;10.18;86.63;97263.93;106299;1280;26251;-83
2022/09/19 10:34:42;;;;;;;57.50;20.90;;;;;;;10.04;84.64;97274.48;106079;1282;22560;-83
2022/09/19 10:37:28;;;;;;;20.00;9.00;;;;;;;10.01;84.84;97274.95;106041;1280;22534;-83
2022/09/19 10:40:04;;;;;;;5.70;3.50;;;;;;;10.01;82.74;97275.96;105784;1282;22569;-84
2022/09/19 10:42:42;;;;;;;4.90;2.80;;;;;;;9.81;82.18;97275.23;106098;1280;22858;-83
2022/09/19 10:45:25;;;;;;;5.40;3.20;;;;;;;9.73;81.51;97278.73;106107;1280;24395;-82
2022/09/19 10:48:26;;;;;;;4.40;3.00;;;;;;;9.71;81.17;97277.23;107546;1280;22955;-83
2022/09/19 10:50:55;;;;;;;4.60;3.20;;;;;;;9.68;82.20;97273.96;106245;1281;22568;-83
2022/09/19 10:53:30;;;;;;;5.00;4.00;;;;;;;9.63;82.05;97283.73;106180;1280;25214;-82
2022/09/19 10:56:11;;;;;;;4.70;3.90;;;;;;;9.48;82.11;97280.25;106375;1280;22707;-83
2022/09/19 10:58:45;;;;;;;6.30;4.20;;;;;;;9.34;82.06;97289.42;106193;1280;23953;-83
2022/09/19 11:01:25;;;;;;;5.30;3.70;;;;;;;9.34;82.87;97279.21;106282;1280;25369;-83
2022/09/19 11:04:22;;;;;;;6.10;4.40;;;;;;;9.34;83.21;97281.20;106355;1280;24347;-84
2022/09/19 11:06:59;;;;;;;4.80;3.90;;;;;;;9.40;82.81;97283.27;106092;1280;24263;-84
2022/09/19 11:09:34;;;;;;;5.80;4.00;;;;;;;9.43;82.56;97288.02;106434;1280;25527;-83
2022/09/19 11:12:15;;;;;;;4.40;3.80;;;;;;;9.62;82.84;97293.04;106743;1280;22884;-83
2022/09/19 11:14:45;;;;;;;5.40;4.30;;;;;;;9.85;82.37;97291.56;106226;1280;24573;-83
2022/09/19 11:17:17;;;;;;;4.60;4.00;;;;;;;9.98;82.27;97284.44;106031;1283;24419;-82
2022/09/19 11:19:49;;;;;;;4.70;3.40;;;;;;;10.10;82.55;97281.48;106287;1280;25364;-83
2022/09/19 11:22:53;;;;;;;5.50;4.00;;;;;;;10.20;81.58;97287.34;106122;1280;24422;-82
2022/09/19 11:25:52;;;;;;;5.20;4.00;;;;;;;10.18;81.53;97294.19;105214;1288;23423;-83
2022/09/19 11:28:38;;;;;;;4.20;3.80;;;;;;;10.10;81.74;97295.91;105053;1288;25349;-83
2022/09/19 11:31:21;;;;;;;5.50;3.90;;;;;;;9.94;81.40;97300.71;105299;1288;23852;-83
2022/09/19 11:34:21;;;;;;;5.80;4.80;;;;;;;9.78;81.28;97304.15;105212;1288;25536;-84
2022/09/19 11:37:38;;;;;;;4.70;4.20;;;;;;;9.67;81.54;97302.02;105316;1288;24647;-83
2022/09/19 11:40:28;;;;;;;8.80;5.30;;;;;;;9.73;82.27;97301.96;105485;1288;22588;-83
2022/09/19 11:43:29;;;;;;;6.60;5.80;;;;;;;9.74;81.72;97307.31;105606;1288;25764;-84
2022/09/19 11:46:21;;;;;;;7.40;4.90;;;;;;;9.76;81.96;97303.02;105282;1288;22719;-84
2022/09/19 11:48:55;;;;;;;7.30;4.60;;;;;;;9.75;82.19;97301.59;105328;1288;22717;-82
2022/09/19 11:51:36;;;;;;;9.00;4.80;;;;;;;9.79;82.64;97299.55;105143;1288;22560;-85
2022/09/19 11:54:44;;;;;;;7.20;5.20;;;;;;;9.80;82.90;97299.31;105418;1288;22841;-84
2022/09/19 11:57:39;;;;;;;6.00;5.30;;;;;;;10.10;82.89;97290.38;105237;1288;22611;-84
2022/09/19 12:00:15;;;;;;;9.60;4.90;;;;;;;10.40;82.41;97287.10;105975;1288;22552;-85
2022/09/19 12:02:58;;;;;;;6.50;5.30;;;;;;;10.56;82.42;97288.75;106541;1280;22617;-83
2022/09/19 12:05:40;;;;;;;6.50;4.80;;;;;;;10.92;82.09;97286.90;106073;1280;22797;-84
2022/09/19 12:08:14;;;;;;;5.30;4.30;;;;;;;11.27;82.26;97286.94;106263;1280;24234;-83
2022/09/19 12:10:54;;;;;;;6.50;5.30;;;;;;;11.38;80.66;97285.35;106325;1280;24616;-84
2022/09/19 12:13:46;;;;;;;6.50;5.80;;;;;;;11.40;81.08;97283.16;106145;1281;22700;-82
2022/09/19 12:16:24;;;;;;;6.10;4.60;;;;;;;11.52;79.25;97288.73;106079;1282;25349;-82
2022/09/19 12:19:02;;;;;;;5.60;3.80;;;;;;;11.33;78.58;97288.56;106354;1281;25311;-83
2022/09/19 12:21:54;;;;;;;4.00;3.40;;;;;;;10.92;78.06;97298.23;106459;1280;22584;-82
2022/09/19 12:24:54;;;;;;;4.20;3.50;;;;;;;10.57;78.98;97294.70;106631;1280;25574;-83
2022/09/19 12:27:44;;;;;;;4.30;3.20;;;;;;;10.40;80.24;97298.20;106170;1282;23946;-82